Latest Weather Observations for Newcastle Nobbys

IDN60801

Issued at 10:03 pm EST Friday 29 July 2016 (issued every 30 minutes, with the page automatically refreshed every 10 minutes)

About weather observations | Map of weather stations | Latest weather observations for NSW | Other Formats
Station Details ID: 061055 Name: NEWCASTLE NOBBYS SIGNAL STATION AWS Lat: -32.92 Lon: 151.80 Height: 33.0 m
Data from the previous 72 hours. | See also: Recent months at Newcastle Nobbys
Date/Time
EST
Temp
°C
App
Temp
°C
Dew
Point
°C
Rel
Hum
%
Delta-T
°C
Wind Press
QNH
hPa
Press
MSL
hPa
Rain since
9am
mm
Dir  Spd
km/h
Gust
km/h
Spd
kts
Gust
kts
29/10:00pm - - - - - WNW 19 22 10 12 - - 0.0
29/09:30pm - - - - - WNW 20 30 11 16 - - 0.0
29/09:00pm - - - - - WNW 20 28 11 15 - - 0.0
29/08:30pm - - - - - WNW 32 39 17 21 - - 0.0
29/08:00pm - - - - - WNW 32 46 17 25 - - 0.0
29/07:30pm - - - - - WNW 22 32 12 17 - - 0.0
29/07:00pm - - - - - WNW 17 24 9 13 - - 0.0
29/06:30pm - - - - - NW 17 24 9 13 - - 0.0
29/06:00pm - - - - - NW 22 32 12 17 - - 0.0
29/05:30pm - - - - - NW 19 28 10 15 - - 0.0
29/05:00pm - - - - - WNW 17 24 9 13 - - 0.0
29/04:30pm - - - - - NW 24 32 13 17 - - 0.0
29/04:00pm - - - - - NW 30 35 16 19 - - 0.0
29/03:30pm - - - - - WNW 28 37 15 20 - - 0.0
29/03:00pm - - - - - NW 26 33 14 18 - - 0.0
29/02:30pm - - - - - WNW 32 44 17 24 - - 0.0
29/02:00pm - - - - - NW 33 43 18 23 - - 0.0
29/01:30pm - - - - - NW 33 48 18 26 - - 0.0
29/01:00pm - - - - - NW 37 52 20 28 - - 0.0
29/12:30pm - - - - - NW 33 43 18 23 - - 0.0
29/12:00pm - - - - - NW 33 46 18 25 - - 0.0
29/11:30am - - - - - NW 30 39 16 21 - - 0.0
29/11:00am - - - - - NW 33 44 18 24 - - 0.0
29/10:30am - - - - - NW 35 48 19 26 - - 0.0
29/10:00am - - - - - NW 28 35 15 19 - - 0.0
29/09:30am - - - - - NW 28 35 15 19 - - 0.0
29/09:00am - - - - - WNW 24 37 13 20 - - 0.0
29/08:30am - - - - - WNW 30 37 16 20 - - 0.0
29/08:00am - - - - - WNW 22 32 12 17 - - 0.0
29/07:30am - - - - - WNW 20 28 11 15 - - 0.0
29/07:00am - - - - - WNW 24 32 13 17 - - 0.0
29/06:30am - - - - - WNW 28 33 15 18 - - 0.0
29/06:00am - - - - - WNW 20 30 11 16 - - 0.0
29/05:30am - - - - - WNW 24 32 13 17 - - 0.0
29/05:00am - - - - - NW 24 30 13 16 - - 0.0
29/04:30am 8.2 2.5 5.0 80 1.4 NW 24 32 13 17 - - 0.0
29/04:00am 8.3 2.6 5.1 80 1.4 NW 24 32 13 17 - - 0.0
29/03:30am 8.7 3.5 5.6 81 1.4 NW 22 28 12 15 - - 0.0
29/03:00am 8.7 3.9 5.6 81 1.4 WNW 20 26 11 14 - - 0.0
29/02:30am 9.0 4.2 5.7 80 1.5 WNW 20 24 11 13 - - 0.0
29/02:00am 9.5 5.7 5.7 77 1.7 NW 15 24 8 13 - - 0.0
29/01:30am 9.8 6.3 5.6 75 1.9 WNW 13 17 7 9 - - 0.0
29/01:00am 10.2 6.5 6.2 76 1.9 WNW 15 19 8 10 - - 0.0
29/12:30am 10.3 7.7 6.1 75 1.9 WNW 9 11 5 6 - - 0.0
29/12:00am 10.9 7.6 6.3 73 2.2 NW 13 17 7 9 - - 0.0
 
Date/Time
EST
Temp
°C
App
Temp
°C
Dew
Point
°C
Rel
Hum
%
Delta-T
°C
Wind Press
QNH
hPa
Press
MSL
hPa
Rain since
9am
mm
Dir  Spd
km/h
Gust
km/h
Spd
kts
Gust
kts
28/11:30pm 11.4 8.1 6.5 72 2.3 NW 13 17 7 9 - - 0.0
28/11:00pm 11.6 9.0 6.3 70 2.5 WNW 9 13 5 7 - - 0.0
28/10:30pm 12.1 9.2 6.6 69 2.6 NW 11 17 6 9 - - 0.0
28/10:00pm 12.6 8.6 6.6 67 2.9 WNW 17 22 9 12 - - 0.0
28/09:30pm 13.3 9.3 6.6 64 3.2 WNW 17 20 9 11 - - 0.0
28/09:00pm 13.8 8.5 6.7 62 3.4 WNW 24 30 13 16 - - 0.0
28/08:30pm 14.0 9.5 6.8 62 3.5 WNW 20 30 11 16 - - 0.0
28/08:00pm 14.2 9.8 7.3 63 3.4 NW 20 26 11 14 - - 0.0
28/07:30pm 14.7 11.1 6.8 59 3.9 NW 15 20 8 11 - - 0.0
28/07:00pm 15.0 10.7 7.1 59 3.9 WNW 19 22 10 12 - - 0.0
28/06:30pm 15.1 10.7 6.7 57 4.1 NW 19 24 10 13 - - 0.0
28/06:00pm 15.3 10.8 6.8 57 4.2 NW 20 26 11 14 - - 0.0
28/05:30pm 15.7 11.8 7.0 56 4.3 NW 17 24 9 13 - - 0.0
28/05:00pm 16.5 11.1 6.3 51 5.0 NW 24 32 13 17 - - 0.0
28/04:30pm 17.3 11.9 6.5 49 5.3 NW 24 30 13 16 - - 0.0
28/04:00pm 17.7 11.8 5.9 46 5.8 NW 26 33 14 18 - - 0.0
28/03:30pm 17.8 11.9 5.7 45 5.9 NW 26 33 14 18 - - 0.0
28/03:00pm 17.9 12.7 5.5 44 6.0 WNW 22 30 12 16 - - 0.0
28/02:30pm 18.4 13.1 4.9 41 6.5 NW 22 30 12 16 - - 0.0
28/02:00pm 17.9 13.2 5.2 43 6.1 WNW 19 24 10 13 - - 0.0
28/01:30pm 18.5 14.4 6.0 44 6.2 W 17 22 9 12 - - 0.0
28/01:00pm 17.7 13.7 5.0 43 6.1 WNW 15 24 8 13 - - 0.0
28/12:30pm 17.5 13.2 5.4 45 5.8 WNW 17 24 9 13 - - 0.0
28/12:00pm 17.1 13.3 5.7 47 5.5 WNW 15 22 8 12 - - 0.0
28/11:30am 16.6 12.5 6.1 50 5.1 NW 17 24 9 13 - - 0.0
28/11:00am 15.7 10.7 6.4 54 4.5 NW 22 28 12 15 - - 0.0
28/10:30am 15.1 10.5 6.7 57 4.1 WNW 20 26 11 14 - - 0.0
28/10:00am 13.9 8.8 6.0 59 3.8 WNW 22 28 12 15 - - 0.0
28/09:30am 12.8 7.0 6.4 65 3.0 NW 26 33 14 18 - - 0.0
28/09:00am 12.0 6.2 6.1 67 2.8 NW 26 37 14 20 - - 0.0
28/08:30am 11.4 6.7 6.1 70 2.5 NW 20 28 11 15 - - 0.0
28/08:00am 10.3 5.5 5.7 73 2.1 NW 20 26 11 14 - - 0.0
28/07:30am 9.8 4.7 6.0 77 1.8 NW 22 28 12 15 - - 0.0
28/07:00am 9.1 4.3 5.7 79 1.5 NW 20 26 11 14 - - 0.0
28/06:30am 9.2 4.0 5.6 78 1.6 NW 22 28 12 15 - - 0.0
28/06:00am 9.3 4.1 5.5 77 1.7 NW 22 26 12 14 - - 0.0
28/05:30am 9.3 4.7 5.5 77 1.7 NW 19 24 10 13 - - 0.0
28/05:00am 9.3 5.0 5.3 76 1.8 NW 17 24 9 13 - - 0.0
28/04:30am 9.3 5.7 5.1 75 1.9 NW 13 15 7 8 - - 0.0
28/04:00am 9.3 4.5 4.9 74 2.0 WNW 19 24 10 13 - - 0.0
28/03:30am 9.7 5.4 5.1 73 2.1 NW 17 22 9 12 - - 0.0
28/03:00am 9.8 5.1 5.0 72 2.2 WNW 19 22 10 12 - - 0.0
28/02:30am 9.9 5.1 4.9 71 2.3 WNW 19 24 10 13 - - 0.0
28/02:00am 10.1 5.7 4.9 70 2.3 WNW 17 22 9 12 - - 0.0
28/01:30am 10.5 5.7 4.9 68 2.5 WNW 19 24 10 13 - - 0.0
28/01:00am 10.9 6.1 4.8 66 2.8 WNW 19 24 10 13 - - 0.0
28/12:30am 11.3 5.9 4.7 64 3.0 WNW 22 28 12 15 - - 0.0
28/12:00am 11.8 6.8 4.5 61 3.3 WNW 20 28 11 15 - - 0.0
 
Date/Time
EST
Temp
°C
App
Temp
°C
Dew
Point
°C
Rel
Hum
%
Delta-T
°C
Wind Press
QNH
hPa
Press
MSL
hPa
Rain since
9am
mm
Dir  Spd
km/h
Gust
km/h
Spd
kts
Gust
kts
27/11:30pm 11.7 6.9 4.9 63 3.1 NW 19 28 10 15 - - 0.0
27/11:00pm 11.8 8.2 5.2 64 3.0 NW 13 19 7 10 - - 0.0
27/10:30pm 12.5 8.4 4.5 58 3.6 WNW 15 17 8 9 - - 0.0
27/10:00pm 13.0 8.5 4.4 56 3.9 WNW 17 20 9 11 - - 0.0
27/09:30pm 13.4 8.6 4.6 55 4.1 WNW 19 32 10 17 - - 0.0
27/09:00pm 13.3 9.6 4.5 55 4.0 WNW 13 17 7 9 - - 0.0
27/08:30pm 14.1 9.6 4.1 51 4.6 WNW 17 20 9 11 - - 0.0
27/08:00pm 14.7 7.7 4.1 49 4.9 W 30 39 16 21 - - 0.0
27/07:30pm 14.5 10.0 4.2 50 4.7 WNW 17 24 9 13 - - 0.0
27/07:00pm 14.9 10.7 3.7 47 5.1 WNW 15 19 8 10 - - 0.0
27/06:30pm 15.4 10.5 3.9 46 5.3 W 19 24 10 13 - - 0.0
27/06:00pm 15.9 9.9 3.4 43 5.7 W 24 35 13 19 - - 0.0
27/05:30pm 16.3 9.0 2.7 40 6.2 W 30 41 16 22 - - 0.0
27/05:00pm 17.1 9.9 3.1 39 6.4 W 30 44 16 24 - - 0.0
27/04:30pm 18.0 9.7 4.2 40 6.5 W 37 52 20 28 - - 0.0
27/04:00pm 18.4 9.8 2.7 35 7.2 W 37 50 20 27 - - 0.0
27/03:30pm 18.7 9.8 3.3 36 7.2 W 39 54 21 29 - - 0.0
27/03:26pm 18.9 11.2 3.5 36 7.2 W 33 54 18 29 - - 0.0
27/03:18pm 19.1 10.4 4.1 37 7.1 WNW 39 57 21 31 - - 0.0
27/03:00pm 18.9 9.3 4.3 38 7.0 W 44 63 24 34 - - 0.0
27/02:51pm 19.0 9.8 3.6 36 7.3 WNW 41 59 22 32 - - 0.0
27/02:30pm 18.2 8.7 4.0 39 6.7 W 43 57 23 31 - - 0.0
27/02:00pm 18.1 10.3 5.0 42 6.3 W 35 50 19 27 - - 0.0
27/01:44pm 18.8 10.9 6.3 44 6.2 WNW 37 57 20 31 - - 0.0
27/01:30pm 18.6 9.3 6.1 44 6.2 WNW 44 57 24 31 - - 0.0
27/01:08pm 17.9 8.7 5.5 44 6.0 WNW 43 61 23 33 - - 0.0
27/01:00pm 18.4 8.8 6.3 45 6.0 WNW 46 61 25 33 - - 0.0
27/12:30pm 18.3 8.7 6.2 45 6.0 WNW 46 76 25 41 - - 0.0
27/12:18pm 18.1 8.8 6.0 45 5.9 WNW 44 65 24 35 - - 0.0
27/12:00pm 17.5 7.4 5.8 46 5.7 WNW 48 63 26 34 - - 0.0
27/11:45am 17.4 7.7 5.7 46 5.7 WNW 46 67 25 36 - - 0.0
27/11:30am 17.2 8.0 6.4 49 5.3 WNW 44 61 24 33 - - 0.0
27/11:00am 16.7 6.7 6.2 50 5.1 WNW 48 67 26 36 - - 0.0
27/10:30am 16.1 4.5 6.0 51 4.9 NW 56 74 30 40 - - 0.0
27/10:00am 15.9 5.9 6.1 52 4.7 NW 48 67 26 36 - - 0.0
27/09:30am 15.6 7.3 6.1 53 4.6 NW 39 59 21 32 - - 0.0
27/09:18am 15.3 7.4 6.3 55 4.4 NW 37 59 20 32 - - 0.0
27/09:00am 14.6 7.0 5.9 56 4.2 NW 35 48 19 26 - - 0.0
27/08:30am 14.1 6.5 6.0 58 3.9 NW 35 48 19 26 - - 0.0
27/08:00am 13.7 5.8 6.1 60 3.6 NW 37 48 20 26 - - 0.0
27/07:30am 13.2 6.2 5.9 61 3.5 NW 32 43 17 23 - - 0.0
27/07:00am 12.8 6.5 5.9 63 3.3 WNW 28 39 15 21 - - 0.0
27/06:30am 12.8 5.7 5.7 62 3.3 WNW 32 41 17 22 - - 0.0
27/06:00am 13.1 4.4 5.8 61 3.4 NW 41 54 22 29 - - 0.0
27/05:30am 12.9 5.9 6.0 63 3.3 NW 32 46 17 25 - - 0.0
27/05:00am 12.5 7.4 5.9 64 3.1 NW 22 39 12 21 - - 0.0
27/04:30am 12.3 6.9 6.4 67 2.8 NW 24 33 13 18 - - 0.0
27/04:00am 12.3 6.8 6.1 66 2.9 NW 24 33 13 18 - - 0.0
27/03:30am 12.3 7.6 5.9 65 3.0 NW 20 26 11 14 - - 0.0
27/03:00am 12.0 6.8 5.6 65 3.0 NW 22 30 12 16 - - 0.0
27/02:30am 12.5 8.4 6.1 65 3.0 NW 17 24 9 13 - - 0.0
27/02:00am 12.8 8.6 5.9 63 3.3 NW 17 22 9 12 - - 0.0
27/01:30am 13.2 8.1 6.1 62 3.4 NW 22 30 12 16 - - 0.0
27/01:00am 13.3 9.2 6.4 63 3.3 NW 17 22 9 12 - - 0.0
27/12:30am 13.5 8.7 5.7 59 3.7 WNW 20 28 11 15 - - 0.0
27/12:00am 13.3 9.2 6.4 63 3.3 NW 17 22 9 12 - - 0.0
 
Date/Time
EST
Temp
°C
App
Temp
°C
Dew
Point
°C
Rel
Hum
%
Delta-T
°C
Wind Press
QNH
hPa
Press
MSL
hPa
Rain since
9am
mm
Dir  Spd
km/h
Gust
km/h
Spd
kts
Gust
kts
26/11:30pm 13.1 10.1 6.0 62 3.4 NW 11 17 6 9 - - 0.0
26/11:00pm 13.4 9.3 6.3 62 3.4 NW 17 22 9 12 - - 0.0
26/10:30pm 13.9 10.2 6.5 61 3.6 NW 15 24 8 13 - - 0.0

Other Formats:

Comma delimited format used in spreadsheet applications
http://www.bom.gov.au/fwo/IDN60801/IDN60801.94774.axf

JavaScript Object Notation format (JSON) in row-major order
http://www.bom.gov.au/fwo/IDN60801/IDN60801.94774.json